Newman, Australia
Current Conditions -  °F | °C
As of 9:00 PM on Saturday 25 Oct 2014 (Local Time) from YNWN Reporting Station
Clear Clear  
Wind Chill: 88°   Ceiling: Unl
Heat Index: 88°   Visibility: NA
Dew Point: 30°   Wind: 12mph
Humidity: 13%   Direction: 220°SW
Pressure: 30"   Gusts: NA
Location:  23.36°S, 119.74°E
Report Text: YNWN 251300Z AUTO 22010KT //// // NCD 31/M01 Q1016
Loading
Personal Weather Stations






























Interactive Weather Map
Tropical Storm Tracking
New forecast layout! Learn more

10-Day Weather Forecast

Advertisements
Track Severe Weather on mobile